createdAt,value
2018-01-17T00:01:51.739Z,97833.13
2018-01-17T00:04:20.961Z,97838.11
2018-01-17T00:06:51.055Z,97838.89
2018-01-17T00:09:21.038Z,97828.59
2018-01-17T00:11:50.315Z,97827.98
2018-01-17T00:14:19.518Z,97826.42
2018-01-17T00:16:48.732Z,97816.33
2018-01-17T00:19:17.914Z,97823.05
2018-01-17T00:21:47.300Z,97811.52
2018-01-17T00:24:16.440Z,97812.69
2018-01-17T00:26:45.749Z,97810.86
2018-01-17T00:29:14.974Z,97815.50
2018-01-17T00:31:44.198Z,97809.05
2018-01-17T00:34:13.442Z,97800.39
2018-01-17T00:36:42.644Z,97798.27
2018-01-17T00:39:11.877Z,97792.63
2018-01-17T00:41:41.943Z,97795.53
2018-01-17T00:44:11.141Z,97787.36
2018-01-17T00:46:40.339Z,97794.36
2018-01-17T00:49:09.542Z,97780.81
2018-01-17T00:51:38.763Z,97775.31
2018-01-17T00:54:08.021Z,97771.89
2018-01-17T00:56:37.219Z,97773.31
2018-01-17T00:59:06.435Z,97772.14
2018-01-17T01:01:35.653Z,97776.91
2018-01-17T01:04:06.378Z,97771.88
2018-01-17T01:06:35.582Z,97778.33
2018-01-17T01:09:04.950Z,97775.08
2018-01-17T01:11:34.144Z,97774.34
2018-01-17T01:14:03.347Z,97770.70
2018-01-17T01:16:32.559Z,97772.99
2018-01-17T01:19:01.977Z,97765.92
2018-01-17T01:21:31.184Z,97763.45
2018-01-17T01:24:00.645Z,97763.36
2018-01-17T01:26:29.978Z,97766.48
2018-01-17T01:28:59.219Z,97759.81
2018-01-17T01:31:28.426Z,97753.42
2018-01-17T01:33:57.692Z,97750.91
2018-01-17T01:36:26.944Z,97759.71
2018-01-17T01:38:56.226Z,97762.66
2018-01-17T01:41:25.574Z,97764.73
2018-01-17T01:43:54.929Z,97771.48
2018-01-17T01:46:24.156Z,97772.59
2018-01-17T01:49:01.965Z,97772.55
2018-01-17T01:51:31.205Z,97771.80
2018-01-17T01:54:00.399Z,97787.64
2018-01-17T01:56:29.624Z,97776.20
2018-01-17T01:58:58.843Z,97781.11
2018-01-17T02:01:28.043Z,97767.98
2018-01-17T02:03:57.218Z,97756.33
2018-01-17T02:06:27.354Z,97799.34
2018-01-17T02:08:56.553Z,97789.82
2018-01-17T02:11:25.797Z,97793.03
2018-01-17T02:13:55.750Z,97799.09
2018-01-17T02:16:24.967Z,97794.81
2018-01-17T02:18:54.246Z,97788.89
2018-01-17T02:21:23.532Z,97774.14
2018-01-17T02:23:52.746Z,97838.75
2018-01-17T02:26:21.951Z,97837.07
2018-01-17T02:28:51.237Z,97849.45
2018-01-17T02:31:21.158Z,97864.86
2018-01-17T02:33:50.451Z,97868.20
2018-01-17T02:36:20.510Z,97881.36
2018-01-17T02:38:49.732Z,97882.91
2018-01-17T02:41:19.705Z,97882.91
2018-01-17T02:43:48.927Z,97886.59
2018-01-17T02:46:18.107Z,97866.06
2018-01-17T02:48:48.045Z,97867.63
2018-01-17T02:51:17.320Z,97871.15
2018-01-17T02:53:46.529Z,97869.16
2018-01-17T02:56:17.195Z,97872.55
2018-01-17T02:58:47.151Z,97870.03
2018-01-17T03:01:16.355Z,97869.30
2018-01-17T03:03:45.582Z,97872.33
2018-01-17T03:06:15.562Z,97872.89
2018-01-17T03:08:44.768Z,97872.42
2018-01-17T03:11:13.941Z,97875.39
2018-01-17T03:13:43.220Z,97871.03
2018-01-17T03:16:12.403Z,97870.98
2018-01-17T03:18:41.602Z,97880.84
2018-01-17T03:21:10.815Z,97882.80
2018-01-17T03:23:39.994Z,97879.57
2018-01-17T03:26:09.198Z,97882.14
2018-01-17T03:28:38.393Z,97883.70
2018-01-17T03:31:07.635Z,97886.45
2018-01-17T03:33:36.862Z,97875.91
2018-01-17T03:36:06.041Z,97881.58
2018-01-17T03:38:35.266Z,97875.72
2018-01-17T03:41:05.278Z,97875.41
2018-01-17T03:43:35.333Z,97877.73
2018-01-17T03:46:04.534Z,97886.94
2018-01-17T03:48:33.798Z,97882.14
2018-01-17T03:51:03.750Z,97887.78
2018-01-17T03:53:32.958Z,97881.31
2018-01-17T03:56:02.151Z,97891.95
2018-01-17T03:58:31.337Z,97883.36
2018-01-17T04:01:00.522Z,97888.45
2018-01-17T04:03:29.753Z,97890.61
2018-01-17T04:05:58.949Z,97904.23
2018-01-17T04:08:28.152Z,97914.63
2018-01-17T04:10:58.131Z,97910.37
2018-01-17T04:13:28.197Z,97907.91
2018-01-17T04:15:57.391Z,97905.02
2018-01-17T04:18:26.626Z,97905.80
2018-01-17T04:20:55.894Z,97902.79
2018-01-17T04:23:25.114Z,97907.52
2018-01-17T04:25:55.178Z,97894.02
2018-01-17T04:28:24.355Z,97902.78
2018-01-17T04:30:53.570Z,97912.31
2018-01-17T04:33:22.807Z,97929.22
2018-01-17T04:35:52.047Z,97927.34
2018-01-17T04:38:21.290Z,97931.50
2018-01-17T04:40:50.506Z,97939.22
2018-01-17T04:43:19.726Z,97942.61
2018-01-17T04:45:49.691Z,97944.34
2018-01-17T04:48:18.874Z,97945.45
2018-01-17T04:50:48.243Z,97948.98
2018-01-17T04:53:18.195Z,97955.45
2018-01-17T04:55:47.575Z,97951.89
2018-01-17T04:58:16.767Z,97962.66
2018-01-17T05:00:46.010Z,97975.20
2018-01-17T05:03:15.242Z,97977.11
2018-01-17T05:05:45.208Z,97983.70
2018-01-17T05:08:14.409Z,97992.95
2018-01-17T05:10:43.591Z,97992.17
2018-01-17T05:13:12.805Z,97985.48
2018-01-17T05:15:42.046Z,97990.02
2018-01-17T05:18:12.042Z,97994.66
2018-01-17T05:20:41.249Z,97999.85
2018-01-17T05:23:11.225Z,98016.14
2018-01-17T05:25:40.389Z,98017.48
2018-01-17T05:28:09.635Z,98011.41
2018-01-17T05:30:38.773Z,98013.59
2018-01-17T05:33:08.061Z,98013.38
2018-01-17T05:35:38.034Z,98022.52
2018-01-17T05:38:07.237Z,98024.88
2018-01-17T05:40:36.434Z,98028.82
2018-01-17T05:43:05.637Z,98028.33
2018-01-17T05:45:34.850Z,98027.94
2018-01-17T05:48:04.058Z,98038.88
2018-01-17T05:50:34.048Z,98051.26
2018-01-17T05:53:03.233Z,98048.28
2018-01-17T05:55:32.449Z,98058.51
2018-01-17T05:58:01.653Z,98057.80
2018-01-17T06:00:30.892Z,98065.20
2018-01-17T06:03:00.090Z,98075.30
2018-01-17T06:05:29.298Z,98074.21
2018-01-17T06:07:58.478Z,98082.25
2018-01-17T06:10:27.733Z,98086.43
2018-01-17T06:12:56.913Z,98090.02
2018-01-17T06:15:26.136Z,98092.56
2018-01-17T06:17:55.445Z,98096.65
2018-01-17T06:20:25.409Z,98092.23
2018-01-17T06:22:54.625Z,98100.11
2018-01-17T06:25:23.840Z,98106.99
2018-01-17T06:27:53.062Z,98114.08
2018-01-17T06:30:23.023Z,98116.27
2018-01-17T06:32:52.254Z,98115.97
2018-01-17T06:35:21.477Z,98125.34
2018-01-17T06:37:51.471Z,98134.86
2018-01-17T06:40:20.691Z,98146.12
2018-01-17T06:42:50.109Z,98146.91
2018-01-17T06:45:19.332Z,98142.34
2018-01-17T06:47:48.570Z,98147.38
2018-01-17T06:50:17.845Z,98155.02
2018-01-17T06:52:47.075Z,98161.72
2018-01-17T06:55:17.048Z,98164.08
2018-01-17T06:57:46.382Z,98170.60
2018-01-17T07:00:17.099Z,98182.33
2018-01-17T07:02:46.322Z,98194.56
2018-01-17T07:05:15.518Z,98192.02
2018-01-17T07:07:44.747Z,98201.26
2018-01-17T07:10:13.954Z,98199.42
2018-01-17T07:12:43.152Z,98200.47
2018-01-17T07:15:12.401Z,98217.56
2018-01-17T07:17:42.370Z,98221.73
2018-01-17T07:20:11.577Z,98226.31
2018-01-17T07:22:40.801Z,98236.62
2018-01-17T07:25:11.693Z,98238.52
2018-01-17T07:27:41.618Z,98244.34
2018-01-17T07:30:10.841Z,98251.43
2018-01-17T07:32:40.047Z,98250.09
2018-01-17T07:35:09.262Z,98254.25
2018-01-17T07:37:39.277Z,98263.30
2018-01-17T07:40:09.274Z,98264.81
2018-01-17T07:42:40.019Z,98271.17
2018-01-17T07:45:10.024Z,98267.55
2018-01-17T07:47:40.830Z,98275.77
2018-01-17T07:50:10.105Z,98274.58
2018-01-17T07:52:39.343Z,98277.80
2018-01-17T07:55:08.555Z,98282.62
2018-01-17T07:57:37.779Z,98281.67
2018-01-17T08:00:07.761Z,98290.57
2018-01-17T08:02:37.854Z,98289.33
2018-01-17T08:05:07.071Z,98296.09
2018-01-17T08:07:36.307Z,98303.66
2018-01-17T08:10:06.342Z,98297.91
2018-01-17T08:12:35.720Z,98304.45
2018-01-17T08:15:05.876Z,98318.63
2018-01-17T08:17:35.076Z,98325.16
2018-01-17T08:20:04.318Z,98326.11
2018-01-17T08:22:33.501Z,98324.14
2018-01-17T08:25:02.727Z,98331.55
2018-01-17T08:27:32.764Z,98348.31
2018-01-17T08:30:02.169Z,98371.16
2018-01-17T08:32:32.146Z,98371.93
2018-01-17T08:35:02.135Z,98383.75
2018-01-17T08:37:31.423Z,98387.11
2018-01-17T08:40:00.623Z,98390.86
2018-01-17T08:42:29.967Z,98392.41
2018-01-17T08:44:59.203Z,98405.40
2018-01-17T08:47:28.434Z,98402.45
2018-01-17T08:49:57.650Z,98395.61
2018-01-17T08:52:26.857Z,98405.92
2018-01-17T08:54:56.195Z,98409.34
2018-01-17T08:57:25.412Z,98421.23
2018-01-17T08:59:54.615Z,98429.41
2018-01-17T09:02:23.929Z,98439.73
2018-01-17T09:04:53.138Z,98441.49
2018-01-17T09:07:22.359Z,98450.67
2018-01-17T09:09:52.359Z,98465.24
2018-01-17T09:12:21.682Z,98475.67
2018-01-17T09:14:50.906Z,98470.55
2018-01-17T09:17:20.417Z,98484.69
2018-01-17T09:19:50.463Z,98493.39
2018-01-17T09:22:19.761Z,98495.70
2018-01-17T09:24:49.021Z,98486.18
2018-01-17T09:27:18.241Z,98490.23
2018-01-17T09:29:47.450Z,98491.58
2018-01-17T09:32:16.722Z,98491.34
2018-01-17T09:34:45.970Z,98491.92
2018-01-17T09:37:15.172Z,98497.40
2018-01-17T09:39:45.161Z,98515.88
2018-01-17T09:42:14.391Z,98520.16
2018-01-17T09:44:43.608Z,98517.77
2018-01-17T09:47:12.830Z,98518.12
2018-01-17T09:49:42.105Z,98522.64
2018-01-17T09:52:11.387Z,98522.36
2018-01-17T09:54:41.397Z,98525.75
2018-01-17T09:57:12.117Z,98533.55
2018-01-17T09:59:41.511Z,98534.13
2018-01-17T10:02:10.684Z,98542.84
2018-01-17T10:04:39.902Z,98552.09
2018-01-17T10:07:09.098Z,98558.79
2018-01-17T10:09:38.303Z,98558.23
2018-01-17T10:12:07.518Z,98554.81
2018-01-17T10:14:36.734Z,98558.95
2018-01-17T10:17:06.752Z,98577.16
2018-01-17T10:19:36.739Z,98588.98
2018-01-17T10:22:06.140Z,98590.87
2018-01-17T10:24:35.378Z,98595.88
2018-01-17T10:27:04.584Z,98586.38
2018-01-17T10:29:33.788Z,98595.36
2018-01-17T10:32:02.981Z,98601.85
2018-01-17T10:34:32.275Z,98597.59
2018-01-17T10:50:01.566Z,98621.52
2018-01-17T10:52:30.807Z,98620.02
2018-01-17T10:55:00.054Z,98604.89
2018-01-17T10:57:30.324Z,98604.69
2018-01-17T10:59:59.566Z,98601.61
2018-01-17T11:02:28.802Z,98609.36
2018-01-17T11:04:58.063Z,98609.16
2018-01-17T11:07:27.296Z,98603.52
2018-01-17T11:09:56.560Z,98615.10
2018-01-17T11:12:25.949Z,98614.78
2018-01-17T11:14:56.014Z,98608.03
2018-01-17T11:17:25.236Z,98603.93
2018-01-17T11:19:55.261Z,98602.19
2018-01-17T11:22:25.278Z,98602.58
2018-01-17T11:24:54.554Z,98592.13
2018-01-17T11:27:23.795Z,98602.58
2018-01-17T11:29:53.071Z,98598.98
2018-01-17T11:32:22.315Z,98610.05
2018-01-17T11:34:51.608Z,98612.09
2018-01-17T11:37:20.821Z,98618.02
2018-01-17T11:39:50.016Z,98618.56
2018-01-17T11:42:19.276Z,98612.52
2018-01-17T11:44:49.246Z,98628.61
2018-01-17T11:47:18.492Z,98638.55
2018-01-17T11:49:48.486Z,98633.27
2018-01-17T11:52:17.751Z,98626.48
2018-01-17T11:54:46.950Z,98633.89
2018-01-17T11:57:16.248Z,98641.47
2018-01-17T11:59:45.450Z,98637.11
2018-01-17T12:02:14.703Z,98631.41
2018-01-17T12:04:43.936Z,98633.24
2018-01-17T12:07:13.376Z,98634.24
2018-01-17T12:09:42.673Z,98634.56
2018-01-17T12:12:11.839Z,98641.95
2018-01-17T12:14:41.271Z,98642.00
2018-01-17T12:17:10.530Z,98635.29
2018-01-17T12:19:39.725Z,98629.42
2018-01-17T12:22:08.964Z,98638.49
2018-01-17T12:24:38.228Z,98628.41
2018-01-17T12:27:07.464Z,98628.37
2018-01-17T12:29:36.746Z,98635.55
2018-01-17T12:32:06.012Z,98618.39
2018-01-17T12:37:11.195Z,98617.55
2018-01-17T12:39:40.484Z,98610.62
2018-01-17T12:42:09.831Z,98615.66
2018-01-17T12:44:39.804Z,98604.06
2018-01-17T12:47:08.993Z,98609.22
2018-01-17T12:49:38.405Z,98615.13
2018-01-17T12:52:07.674Z,98615.22
2018-01-17T12:54:36.908Z,98627.77
2018-01-17T12:57:06.145Z,98624.46
2018-01-17T12:59:36.122Z,98625.34
2018-01-17T13:02:05.353Z,98613.20
2018-01-17T13:04:35.355Z,98625.05
2018-01-17T13:07:04.574Z,98619.01
2018-01-17T13:09:33.850Z,98612.30
2018-01-17T13:12:03.838Z,98610.31
2018-01-17T13:14:33.130Z,98618.05
2018-01-17T13:17:02.374Z,98602.57
2018-01-17T13:19:32.400Z,98605.20
2018-01-17T13:22:02.416Z,98611.82
2018-01-17T13:24:32.515Z,98609.22
2018-01-17T13:27:01.744Z,98621.31
2018-01-17T13:29:31.755Z,98622.89
2018-01-17T13:32:01.027Z,98627.22
2018-01-17T13:34:31.027Z,98631.73
2018-01-17T13:37:00.507Z,98648.47
2018-01-17T13:39:29.711Z,98667.83
2018-01-17T13:41:58.974Z,98658.52
2018-01-17T13:44:28.166Z,98673.04
2018-01-17T13:46:58.483Z,98691.84
2018-01-17T13:49:28.576Z,98681.97
2018-01-17T13:51:57.825Z,98687.23
2018-01-17T13:54:27.073Z,98700.73
2018-01-17T13:56:56.286Z,98722.75
2018-01-17T13:59:25.527Z,98716.43
2018-01-17T14:01:54.782Z,98728.17
2018-01-17T14:04:23.986Z,98727.45
2018-01-17T14:06:54.022Z,98730.14
2018-01-17T14:09:23.243Z,98726.27
2018-01-17T14:11:52.454Z,98716.51
2018-01-17T14:14:21.754Z,98732.14
2018-01-17T14:16:50.956Z,98753.96
2018-01-17T14:19:20.254Z,98801.33
2018-01-17T14:21:50.456Z,98770.67
2018-01-17T14:24:19.890Z,98774.59
2018-01-17T14:26:49.099Z,98754.46
2018-01-17T14:29:18.344Z,98773.75
2018-01-17T14:31:47.559Z,98771.43
2018-01-17T14:34:16.771Z,98804.92
2018-01-17T14:36:46.483Z,98811.31
2018-01-17T14:39:16.471Z,98802.31
2018-01-17T14:41:45.975Z,98810.48
2018-01-17T14:44:15.222Z,98820.44
2018-01-17T14:46:44.473Z,98822.60
2018-01-17T14:49:13.658Z,98818.54
2018-01-17T14:51:43.073Z,98815.81
2018-01-17T14:54:12.331Z,98824.41
2018-01-17T14:56:42.363Z,98829.55
2018-01-17T14:59:11.570Z,98840.28
2018-01-17T15:01:40.840Z,98847.47
2018-01-17T15:04:11.574Z,98841.81
2018-01-17T15:06:41.840Z,98855.56
2018-01-17T15:09:11.227Z,98866.52
2018-01-17T15:11:40.550Z,98873.67
2018-01-17T15:14:10.106Z,98878.13
2018-01-17T15:16:39.350Z,98885.31
2018-01-17T15:19:08.552Z,98887.25
2018-01-17T15:21:37.741Z,98901.70
2018-01-17T15:24:06.966Z,98911.69
2018-01-17T15:26:36.245Z,98895.39
2018-01-17T15:29:05.571Z,98916.16
2018-01-17T15:31:34.815Z,98918.73
2018-01-17T15:34:04.834Z,98928.76
2018-01-17T15:36:34.799Z,98925.05
2018-01-17T15:39:04.038Z,98943.69
2018-01-17T15:41:33.258Z,98938.31
2018-01-17T15:44:02.505Z,98934.13
2018-01-17T15:46:31.723Z,98932.00
2018-01-17T15:49:01.734Z,98952.45
2018-01-17T15:51:31.722Z,98972.19
2018-01-17T15:54:01.020Z,98982.20
2018-01-17T15:56:30.447Z,98982.20
2018-01-17T15:58:59.685Z,98982.44
2018-01-17T16:01:30.859Z,98991.84
2018-01-17T16:04:00.090Z,98996.15
2018-01-17T16:06:29.309Z,99001.03
2018-01-17T16:08:58.534Z,99002.47
2018-01-17T16:11:27.815Z,99009.14
2018-01-17T16:13:57.009Z,99010.56
2018-01-17T16:16:26.290Z,99020.82
2018-01-17T16:18:56.339Z,99009.45
2018-01-17T16:21:25.591Z,99013.25
2018-01-17T16:23:55.602Z,99018.86
2018-01-17T16:26:24.828Z,99024.36
2018-01-17T16:28:55.074Z,99029.66
2018-01-17T16:31:25.030Z,99024.84
2018-01-17T16:33:55.034Z,99032.81
2018-01-17T16:36:24.337Z,99032.70
2018-01-17T16:38:53.544Z,99032.06
2018-01-17T16:41:22.745Z,99048.36
2018-01-17T16:43:52.100Z,99053.11
2018-01-17T16:46:21.353Z,99048.48
2018-01-17T16:48:50.681Z,99055.97
2018-01-17T16:51:20.647Z,99061.09
2018-01-17T16:53:49.861Z,99077.52
2018-01-17T16:56:19.854Z,99077.12
2018-01-17T16:58:50.705Z,99087.98
2018-01-17T17:01:19.926Z,99095.48
2018-01-17T17:03:49.913Z,99091.81
2018-01-17T17:06:19.133Z,99095.63
2018-01-17T17:08:48.577Z,99100.80
2018-01-17T17:11:17.933Z,99078.06
2018-01-17T17:13:47.174Z,99080.25
2018-01-17T17:16:16.391Z,99095.83
2018-01-17T17:18:45.676Z,99103.47
2018-01-17T17:21:14.843Z,99107.45
2018-01-17T17:23:44.067Z,99104.80
2018-01-17T17:26:13.291Z,99135.84
2018-01-17T17:28:42.542Z,99147.66
2018-01-17T17:31:11.792Z,99133.63
2018-01-17T17:33:41.936Z,99138.69
2018-01-17T17:36:11.933Z,99139.89
2018-01-17T17:38:41.184Z,99139.84
2018-01-17T17:41:10.438Z,99144.27
2018-01-17T17:43:41.832Z,99146.54
2018-01-17T17:46:11.836Z,99146.23
2018-01-17T17:48:41.083Z,99124.69
2018-01-17T17:51:10.410Z,99127.25
2018-01-17T17:53:39.612Z,99131.48
2018-01-17T17:56:08.839Z,99132.61
2018-01-17T17:58:38.051Z,99139.13
2018-01-17T18:01:07.262Z,99137.28
2018-01-17T18:03:36.499Z,99146.33
2018-01-17T18:06:07.728Z,99151.85
2018-01-17T18:08:36.959Z,99147.06
2018-01-17T18:11:06.996Z,99154.47
2018-01-17T18:13:37.672Z,99148.86
2018-01-17T18:16:06.891Z,99150.26
2018-01-17T18:18:36.118Z,99150.13
2018-01-17T18:21:05.334Z,99156.44
2018-01-17T18:23:34.544Z,99161.86
2018-01-17T18:26:03.909Z,99160.33
2018-01-17T18:28:33.231Z,99164.05
2018-01-17T18:31:02.517Z,99170.31
2018-01-17T18:33:31.753Z,99164.69
2018-01-17T18:36:01.149Z,99170.20
2018-01-17T18:38:30.343Z,99170.11
2018-01-17T18:40:59.579Z,99173.28
2018-01-17T18:43:28.830Z,99171.23
2018-01-17T18:45:58.046Z,99180.72
2018-01-17T18:48:27.257Z,99182.22
2018-01-17T18:50:56.508Z,99193.16
2018-01-17T18:53:25.863Z,99189.95
2018-01-17T18:55:55.161Z,99187.55
2018-01-17T18:58:25.367Z,99186.30
2018-01-17T19:00:54.798Z,99189.14
2018-01-17T19:03:24.061Z,99194.15
2018-01-17T19:05:53.294Z,99193.81
2018-01-17T19:08:22.789Z,99198.41
2018-01-17T19:10:53.563Z,99204.73
2018-01-17T19:13:22.757Z,99202.17
2018-01-17T19:15:51.962Z,99208.22
2018-01-17T19:18:21.185Z,99209.56
2018-01-17T19:20:50.408Z,99215.00
2018-01-17T19:23:20.420Z,99219.88
2018-01-17T19:25:49.620Z,99217.52
2018-01-17T19:28:18.870Z,99216.42
2018-01-17T19:30:48.081Z,99217.21
2018-01-17T19:33:17.409Z,99212.69
2018-01-17T19:35:47.465Z,99216.95
2018-01-17T19:38:16.663Z,99223.74
2018-01-17T19:40:46.648Z,99215.72
2018-01-17T19:43:16.735Z,99222.30
2018-01-17T19:45:46.048Z,99217.48
2018-01-17T19:48:15.364Z,99225.03
2018-01-17T19:50:46.182Z,99222.25
2018-01-17T19:53:15.422Z,99223.27
2018-01-17T19:55:45.439Z,99220.22
2018-01-17T19:58:15.437Z,99224.40
2018-01-17T20:00:45.453Z,99215.45
2018-01-17T20:03:14.660Z,99220.83
2018-01-17T20:05:44.087Z,99220.12
2018-01-17T20:08:13.327Z,99219.58
2018-01-17T20:10:43.344Z,99214.51
2018-01-17T20:13:12.568Z,99223.76
2018-01-17T20:15:42.617Z,99223.36
2018-01-17T20:18:12.552Z,99227.73
2018-01-17T20:20:41.836Z,99231.52
2018-01-17T20:23:11.042Z,99233.16
2018-01-17T20:25:40.267Z,99231.82
2018-01-17T20:28:09.487Z,99231.05
2018-01-17T20:30:38.786Z,99231.87
2018-01-17T20:33:08.994Z,99236.30
2018-01-17T20:35:38.289Z,99234.14
2018-01-17T20:38:07.504Z,99245.80
2018-01-17T20:40:36.727Z,99238.77
2018-01-17T20:43:05.923Z,99248.51
2018-01-17T20:45:35.973Z,99256.78
2018-01-17T20:48:05.204Z,99258.45
2018-01-17T20:50:34.449Z,99250.12
2018-01-17T20:53:04.434Z,99250.21
2018-01-17T20:55:34.731Z,99255.19
2018-01-17T20:58:03.969Z,99252.99
2018-01-17T21:00:34.769Z,99258.45
2018-01-17T21:03:04.007Z,99257.26
2018-01-17T21:05:34.000Z,99256.43
2018-01-17T21:08:03.195Z,99259.60
2018-01-17T21:10:33.190Z,99255.91
2018-01-17T21:13:03.930Z,99269.41
2018-01-17T21:15:33.216Z,99268.09
2018-01-17T21:18:02.452Z,99267.17
2018-01-17T21:20:32.445Z,99267.91
2018-01-17T21:23:02.733Z,99281.00
2018-01-17T21:25:32.030Z,99275.63
2018-01-17T21:28:01.271Z,99273.12
2018-01-17T21:30:30.671Z,99270.92
2018-01-17T21:32:59.906Z,99264.73
2018-01-17T21:35:29.155Z,99264.48
2018-01-17T21:37:58.368Z,99254.95
2018-01-17T21:40:27.603Z,99249.55
2018-01-17T21:43:03.240Z,99254.63
2018-01-17T21:45:38.673Z,99265.72
2018-01-17T21:48:08.843Z,99264.98
2018-01-17T21:50:38.058Z,99279.95
2018-01-17T21:53:07.359Z,99285.93
2018-01-17T21:55:36.703Z,99286.08
2018-01-17T21:58:06.040Z,99289.08
2018-01-17T22:00:35.261Z,99282.23
2018-01-17T22:03:04.488Z,99281.66
2018-01-17T22:05:34.473Z,99280.73
2018-01-17T22:08:03.803Z,99270.70
2018-01-17T22:10:33.773Z,99261.36
2018-01-17T22:13:03.001Z,99261.14
2018-01-17T22:15:33.067Z,99260.50
2018-01-17T22:18:02.312Z,99254.50
2018-01-17T22:20:31.568Z,99262.55
2018-01-17T22:23:00.921Z,99257.12
2018-01-17T22:25:30.374Z,99255.14
2018-01-17T22:27:59.612Z,99252.05
2018-01-17T22:30:28.834Z,99242.16
2018-01-17T22:32:58.842Z,99244.55
2018-01-17T22:35:28.385Z,99234.44
2018-01-17T22:37:57.604Z,99236.42
2018-01-17T22:40:26.863Z,99226.99
2018-01-17T22:42:56.858Z,99228.12
2018-01-17T22:45:26.912Z,99223.45
2018-01-17T22:47:56.193Z,99215.48
2018-01-17T22:50:26.158Z,99227.33
2018-01-17T22:52:55.355Z,99226.53
2018-01-17T22:55:24.574Z,99229.31
2018-01-17T22:57:53.759Z,99222.65
2018-01-17T23:00:23.016Z,99228.42
2018-01-17T23:02:52.291Z,99230.55
2018-01-17T23:05:21.735Z,99234.58
2018-01-17T23:07:51.010Z,99236.94
2018-01-17T23:10:21.055Z,99229.45
2018-01-17T23:12:50.355Z,99230.37
2018-01-17T23:15:19.575Z,99224.29
2018-01-17T23:17:48.794Z,99233.05
2018-01-17T23:20:18.773Z,99223.73
2018-01-17T23:22:48.011Z,99228.94
2018-01-17T23:25:17.966Z,99231.63
2018-01-17T23:27:47.301Z,99230.59
2018-01-17T23:30:16.548Z,99211.92
2018-01-17T23:32:45.796Z,99210.98
2018-01-17T23:35:15.160Z,99199.91
2018-01-17T23:37:44.641Z,99198.25
2018-01-17T23:40:13.899Z,99195.48
2018-01-17T23:42:43.274Z,99199.29
2018-01-17T23:45:13.261Z,99196.52
2018-01-17T23:47:43.217Z,99197.00
2018-01-17T23:50:12.444Z,99176.29
2018-01-17T23:52:42.758Z,99180.92
2018-01-17T23:55:12.030Z,99180.61
2018-01-17T23:57:41.258Z,99177.79
